Time;durP1;ratioP1;P1;durP2;ratioP2;P2;SDS_P1;SDS_P2;PMS_P1;PMS_P2;Temp;Humidity;BMP_temperature;BMP_pressure;BME280_temperature;BME280_humidity;BME280_pressure;Samples;Min_cycle;Max_cycle;Signal;HPM_P1;HPM_P2
2022/11/03 00:02:05;;;;;;;17.95;3.50;;;;;;;11.65;100.00;100149.78;4806124;29;20026;-75
2022/11/03 00:04:31;;;;;;;14.95;4.03;;;;;;;11.63;100.00;100147.28;4819374;29;20037;-75
2022/11/03 00:06:56;;;;;;;17.65;3.72;;;;;;;11.64;100.00;100145.34;4856720;29;20098;-75
2022/11/03 00:09:22;;;;;;;13.35;3.17;;;;;;;11.66;100.00;100154.19;4812373;29;20037;-75
2022/11/03 00:11:51;;;;;;;13.40;3.65;;;;;;;11.67;100.00;100136.38;4828205;29;20049;-75
2022/11/03 00:14:17;;;;;;;13.00;3.42;;;;;;;11.65;100.00;100130.31;4828336;29;20118;-76
2022/11/03 00:16:43;;;;;;;11.00;2.88;;;;;;;11.65;100.00;100129.50;4828660;29;20065;-75
2022/11/03 00:19:09;;;;;;;12.07;3.38;;;;;;;11.65;100.00;100127.53;4805221;29;20496;-75
2022/11/03 00:21:34;;;;;;;17.20;3.38;;;;;;;11.65;100.00;100121.97;4828315;29;20095;-75
2022/11/03 00:24:03;;;;;;;15.50;3.60;;;;;;;11.67;100.00;100122.47;4828164;29;20038;-74
2022/11/03 00:26:29;;;;;;;17.85;3.88;;;;;;;11.67;100.00;100119.69;4844458;29;20038;-75
2022/11/03 00:28:56;;;;;;;15.57;4.50;;;;;;;11.65;100.00;100113.63;4797667;29;20179;-75
2022/11/03 00:31:23;;;;;;;15.68;3.63;;;;;;;11.65;100.00;100115.59;4813097;29;20041;-75
2022/11/03 00:33:48;;;;;;;12.27;3.50;;;;;;;11.67;100.00;100099.38;4830470;29;20167;-74
2022/11/03 00:36:33;;;;;;;19.83;4.15;;;;;;;11.67;100.00;100091.84;4792789;29;20053;-75
2022/11/03 00:38:59;;;;;;;17.50;4.07;;;;;;;11.69;100.00;100088.78;4786314;29;20033;-75
2022/11/03 00:41:24;;;;;;;14.18;3.50;;;;;;;11.69;100.00;100081.25;4832096;29;20071;-75
2022/11/03 00:43:50;;;;;;;13.93;3.22;;;;;;;11.68;100.00;100076.84;4787089;29;20030;-75
2022/11/03 00:46:16;;;;;;;15.95;2.95;;;;;;;11.71;100.00;100072.59;4816618;29;20034;-75
2022/11/03 00:48:41;;;;;;;16.08;4.13;;;;;;;11.74;100.00;100078.34;4831459;29;20519;-75
2022/11/03 00:51:16;;;;;;;17.73;4.38;;;;;;;11.74;100.00;100072.78;4846297;29;20049;-75
2022/11/03 00:53:50;;;;;;;8.85;3.17;;;;;;;11.74;100.00;100064.44;4831497;29;20090;-75
2022/11/03 00:56:29;;;;;;;15.32;3.25;;;;;;;11.75;100.00;100068.88;4805496;29;20026;-75
2022/11/03 00:58:55;;;;;;;14.30;3.60;;;;;;;11.77;100.00;100061.03;4804510;29;20026;-75
2022/11/03 01:01:22;;;;;;;14.35;3.55;;;;;;;11.78;100.00;100059.94;4783833;29;20074;-75
2022/11/03 01:06:49;;;;;;;19.85;3.28;;;;;;;11.80;100.00;100065.97;4833331;29;20555;-75
2022/11/03 01:09:17;;;;;;;15.00;3.40;;;;;;;11.80;100.00;100046.50;4804241;29;20119;-75
2022/11/03 01:12:16;;;;;;;19.80;3.95;;;;;;;11.82;100.00;100038.66;4815825;29;20042;-75
2022/11/03 01:14:47;;;;;;;22.52;4.25;;;;;;;11.85;100.00;100038.06;4831126;29;20117;-75
2022/11/03 01:17:14;;;;;;;19.23;3.80;;;;;;;11.85;100.00;100031.66;4832752;29;20524;-75
2022/11/03 01:19:40;;;;;;;22.55;3.70;;;;;;;11.85;100.00;100026.09;4793770;29;20068;-75
2022/11/03 01:22:06;;;;;;;18.58;3.72;;;;;;;11.85;100.00;100021.38;4815842;29;20433;-75
2022/11/03 01:24:33;;;;;;;12.77;3.88;;;;;;;11.87;100.00;100018.28;4815563;29;20040;-75
2022/11/03 01:26:58;;;;;;;19.35;3.65;;;;;;;11.89;100.00;100015.19;4823785;29;20430;-75
2022/11/03 01:29:24;;;;;;;21.17;4.07;;;;;;;11.90;100.00;100000.16;4835790;29;20037;-75
2022/11/03 01:31:49;;;;;;;18.15;4.10;;;;;;;11.88;100.00;100006.00;4807598;29;20041;-75
2022/11/03 01:34:16;;;;;;;14.00;3.25;;;;;;;11.87;100.00;99997.97;4843528;29;20687;-75
2022/11/03 01:36:42;;;;;;;17.88;4.68;;;;;;;11.88;100.00;99992.09;4795044;29;20060;-75
2022/11/03 01:39:11;;;;;;;13.52;3.22;;;;;;;11.87;100.00;99990.47;4800179;29;20026;-75
2022/11/03 01:41:37;;;;;;;16.33;3.65;;;;;;;11.88;100.00;99985.72;4785425;29;20121;-75
2022/11/03 01:44:05;;;;;;;14.80;3.15;;;;;;;11.88;100.00;99994.06;4812853;29;20030;-75
2022/11/03 01:46:31;;;;;;;15.30;3.25;;;;;;;11.85;100.00;99979.66;4830213;29;20453;-75
2022/11/03 01:48:59;;;;;;;14.65;3.65;;;;;;;11.84;100.00;99985.50;4814767;29;20088;-75
2022/11/03 01:51:25;;;;;;;12.60;3.15;;;;;;;11.85;100.00;99968.50;4800225;29;20117;-75
2022/11/03 01:53:51;;;;;;;13.85;3.50;;;;;;;11.82;100.00;99960.78;4814908;29;20539;-76
2022/11/03 01:56:17;;;;;;;13.10;3.10;;;;;;;11.81;100.00;99964.69;4814943;29;20053;-75
2022/11/03 01:58:43;;;;;;;15.13;3.42;;;;;;;11.82;100.00;99960.78;4830241;29;20041;-76
2022/11/03 02:01:09;;;;;;;15.68;3.22;;;;;;;11.83;100.00;99962.41;4800241;29;20025;-75
2022/11/03 02:03:37;;;;;;;18.55;3.53;;;;;;;11.80;100.00;99945.53;4798994;29;20470;-75
2022/11/03 02:06:03;;;;;;;13.75;3.47;;;;;;;11.80;100.00;99943.56;4800151;29;20502;-75
2022/11/03 02:08:33;;;;;;;20.85;3.60;;;;;;;11.79;100.00;99933.59;4814612;29;20030;-75
2022/11/03 02:10:58;;;;;;;17.77;2.95;;;;;;;11.79;100.00;99921.63;4814979;29;20167;-75
2022/11/03 02:13:25;;;;;;;18.88;3.50;;;;;;;11.78;100.00;99918.03;4815413;29;20049;-75
2022/11/03 02:15:52;;;;;;;15.63;3.30;;;;;;;11.77;100.00;99912.78;4846590;29;20106;-76
2022/11/03 02:18:19;;;;;;;14.43;3.08;;;;;;;11.77;100.00;99910.00;4814864;29;20094;-76
2022/11/03 02:20:45;;;;;;;13.68;3.10;;;;;;;11.75;100.00;99913.09;4799340;29;20038;-76
2022/11/03 02:23:22;;;;;;;17.27;3.35;;;;;;;11.72;100.00;99908.16;4829881;29;20046;-76
2022/11/03 02:25:57;;;;;;;18.52;2.92;;;;;;;11.74;100.00;99905.88;4814922;29;20026;-76
2022/11/03 02:28:28;;;;;;;19.50;3.67;;;;;;;11.72;100.00;99890.66;4799448;29;20067;-76
2022/11/03 02:31:14;;;;;;;12.70;3.22;;;;;;;11.71;100.00;99878.72;4814260;29;20038;-76
2022/11/03 02:33:52;;;;;;;17.63;3.60;;;;;;;11.68;100.00;99893.25;4829837;29;20510;-76
2022/11/03 02:36:39;;;;;;;18.48;3.50;;;;;;;11.70;100.00;99896.53;4821187;29;20104;-75
2022/11/03 02:39:08;;;;;;;21.98;3.40;;;;;;;11.70;100.00;99884.56;4814346;29;20073;-76
2022/11/03 02:41:34;;;;;;;14.18;3.05;;;;;;;11.70;100.00;99896.53;4829486;29;20065;-76
2022/11/03 02:44:00;;;;;;;17.95;3.60;;;;;;;11.67;100.00;99894.38;4813009;29;20085;-75
2022/11/03 02:46:25;;;;;;;13.52;3.00;;;;;;;11.70;100.00;99876.22;4814264;29;20045;-75
2022/11/03 02:48:51;;;;;;;18.98;3.38;;;;;;;11.69;100.00;99874.59;4831485;29;20053;-75
2022/11/03 02:51:16;;;;;;;12.15;3.53;;;;;;;11.68;100.00;99864.63;4829346;29;20117;-75
2022/11/03 02:53:55;;;;;;;19.27;3.28;;;;;;;11.68;100.00;99861.84;4829134;29;20049;-75
2022/11/03 02:56:20;;;;;;;20.33;3.17;;;;;;;11.69;100.00;99844.00;4829495;29;20091;-75
2022/11/03 02:58:46;;;;;;;12.43;3.35;;;;;;;11.67;100.00;99840.69;4798163;29;20034;-75
2022/11/03 03:01:24;;;;;;;13.93;2.70;;;;;;;11.67;100.00;99835.13;4813846;29;20038;-75
2022/11/03 03:03:53;;;;;;;17.15;3.40;;;;;;;11.66;100.00;99811.25;4813833;29;20058;-75
2022/11/03 03:06:22;;;;;;;13.73;3.20;;;;;;;11.67;100.00;99818.44;4814053;29;20030;-75
2022/11/03 03:08:51;;;;;;;19.92;3.53;;;;;;;11.68;100.00;99807.03;4812782;29;20045;-75
2022/11/03 03:11:35;;;;;;;15.82;2.65;;;;;;;11.68;100.00;99795.09;4797807;29;20034;-75
2022/11/03 03:14:21;;;;;;;15.18;2.58;;;;;;;11.69;100.00;99791.97;4832142;29;20073;-75
2022/11/03 03:17:00;;;;;;;13.35;3.08;;;;;;;11.66;100.00;99789.81;4820319;29;20515;-75
2022/11/03 03:19:31;;;;;;;13.70;2.83;;;;;;;11.67;100.00;99772.00;4813860;29;20069;-75
2022/11/03 03:21:57;;;;;;;15.23;3.20;;;;;;;11.69;100.00;99778.06;4798979;29;20369;-75
2022/11/03 03:24:36;;;;;;;16.52;2.70;;;;;;;11.63;100.00;99779.34;4813477;29;20026;-75
2022/11/03 03:27:02;;;;;;;13.00;2.67;;;;;;;11.64;100.00;99769.84;4813636;29;20046;-75
2022/11/03 03:29:32;;;;;;;13.38;2.97;;;;;;;11.63;100.00;99773.78;4841021;29;20034;-75
2022/11/03 03:32:00;;;;;;;14.27;3.25;;;;;;;11.64;100.00;99758.72;4813695;29;20136;-75
2022/11/03 03:34:26;;;;;;;12.02;2.70;;;;;;;11.59;100.00;99750.53;4795198;29;20034;-75
2022/11/03 03:36:51;;;;;;;12.48;2.63;;;;;;;11.59;100.00;99742.19;4794153;29;20030;-75
2022/11/03 03:39:17;;;;;;;14.40;2.13;;;;;;;11.59;100.00;99720.75;4812962;29;20037;-75
2022/11/03 03:41:44;;;;;;;13.10;3.28;;;;;;;11.59;100.00;99722.72;4813543;29;20546;-75
2022/11/03 03:44:09;;;;;;;12.38;2.47;;;;;;;11.58;100.00;99729.41;4781848;29;20029;-75
2022/11/03 03:46:41;;;;;;;16.98;3.00;;;;;;;11.56;100.00;99732.53;4798346;29;20098;-75
2022/11/03 03:49:07;;;;;;;19.63;3.28;;;;;;;11.55;100.00;99716.97;4814917;29;20065;-75
2022/11/03 03:51:32;;;;;;;11.50;2.90;;;;;;;11.55;100.00;99721.72;4805270;29;20034;-75
2022/11/03 03:53:57;;;;;;;10.48;2.28;;;;;;;11.54;100.00;99718.13;4813049;29;20042;-75
2022/11/03 03:56:30;;;;;;;15.32;2.80;;;;;;;11.51;100.00;99712.38;4828686;29;20026;-75
2022/11/03 03:58:55;;;;;;;17.55;2.60;;;;;;;11.49;100.00;99704.34;4819136;29;20030;-75
2022/11/03 04:01:21;;;;;;;14.05;2.40;;;;;;;11.52;100.00;99689.00;4798633;29;20513;-75
2022/11/03 04:03:46;;;;;;;16.65;2.80;;;;;;;11.50;100.00;99675.38;4813401;29;20022;-75
2022/11/03 04:06:12;;;;;;;14.27;2.53;;;;;;;11.50;100.00;99686.50;4780633;29;20038;-75
2022/11/03 04:08:37;;;;;;;11.68;2.70;;;;;;;11.47;100.00;99675.22;4827762;29;20034;-75
2022/11/03 04:22:17;;;;;;;11.90;2.40;;;;;;;11.43;100.00;99640.88;4844663;29;20034;-75
2022/11/03 04:24:44;;;;;;;13.55;2.38;;;;;;;11.41;100.00;99655.91;4823475;29;20479;-75
2022/11/03 04:27:18;;;;;;;15.10;2.88;;;;;;;11.39;100.00;99644.31;4816853;29;20062;-75
2022/11/03 04:29:44;;;;;;;12.02;2.50;;;;;;;11.39;100.00;99640.66;4817045;29;20048;-75
2022/11/03 04:32:14;;;;;;;15.13;2.42;;;;;;;11.36;100.00;99636.56;4801530;29;20030;-75
2022/11/03 04:34:40;;;;;;;15.57;2.55;;;;;;;11.37;100.00;99637.41;4816018;29;20042;-75
2022/11/03 04:37:09;;;;;;;13.10;2.65;;;;;;;11.35;100.00;99639.69;4800060;29;20062;-75
2022/11/03 04:39:34;;;;;;;11.73;2.42;;;;;;;11.33;100.00;99634.44;4812812;29;20058;-75
2022/11/03 04:42:00;;;;;;;10.18;2.28;;;;;;;11.35;100.00;99634.94;4843049;29;20034;-75
2022/11/03 04:44:25;;;;;;;9.52;1.95;;;;;;;11.33;100.00;99631.66;4797757;29;20046;-75
2022/11/03 04:46:51;;;;;;;10.77;2.03;;;;;;;11.29;100.00;99630.66;4797673;29;20045;-75
2022/11/03 04:49:20;;;;;;;13.02;2.60;;;;;;;11.29;100.00;99614.00;4779381;29;20050;-75
2022/11/03 04:51:46;;;;;;;10.07;2.20;;;;;;;11.28;100.00;99609.59;4823014;29;20034;-76
2022/11/03 04:54:18;;;;;;;17.45;3.10;;;;;;;11.28;100.00;99598.47;4812520;29;20034;-75
2022/11/03 04:56:44;;;;;;;13.88;2.97;;;;;;;11.30;100.00;99593.38;4812524;29;20487;-75
2022/11/03 04:59:13;;;;;;;13.40;2.40;;;;;;;11.26;100.00;99584.06;4812736;29;20036;-75
2022/11/03 05:01:39;;;;;;;13.13;2.75;;;;;;;11.28;100.00;99578.16;4797723;29;20041;-75
2022/11/03 05:04:11;;;;;;;15.70;2.53;;;;;;;11.27;100.00;99571.78;4812794;29;20041;-75
2022/11/03 05:06:36;;;;;;;10.45;2.40;;;;;;;11.29;100.00;99558.41;4812939;29;20109;-75
2022/11/03 05:09:16;;;;;;;11.90;2.33;;;;;;;11.28;100.00;99559.56;4827534;29;20065;-75
2022/11/03 05:11:44;;;;;;;16.52;3.08;;;;;;;11.26;100.00;99544.34;4798561;29;20036;-75
2022/11/03 05:14:21;;;;;;;15.20;3.33;;;;;;;11.26;100.00;99545.16;4797534;29;20034;-76
2022/11/03 05:16:47;;;;;;;14.52;2.72;;;;;;;11.28;100.00;99534.53;4809561;29;20034;-75
2022/11/03 05:19:21;;;;;;;12.90;2.63;;;;;;;11.31;100.00;99530.25;4796402;29;20042;-76
2022/11/03 05:21:49;;;;;;;10.00;3.10;;;;;;;11.28;100.00;99528.97;4800578;29;20078;-75
2022/11/03 05:24:14;;;;;;;11.70;2.63;;;;;;;11.26;100.00;99531.25;4825990;29;20122;-75
2022/11/03 05:26:40;;;;;;;17.52;2.97;;;;;;;11.30;100.00;99532.22;4847397;29;20033;-75
2022/11/03 05:29:09;;;;;;;16.38;3.25;;;;;;;11.30;100.00;99520.31;4847592;29;20381;-75
2022/11/03 05:31:35;;;;;;;15.35;3.53;;;;;;;11.31;100.00;99524.72;4815668;29;20041;-75
2022/11/03 05:34:20;;;;;;;15.38;3.58;;;;;;;11.30;100.00;99521.13;4799405;29;20120;-75
2022/11/03 05:36:45;;;;;;;14.95;3.20;;;;;;;11.29;100.00;99513.94;4812744;29;20113;-75
2022/11/03 05:39:20;;;;;;;17.05;3.45;;;;;;;11.31;100.00;99508.88;4815661;29;20042;-75
2022/11/03 05:41:45;;;;;;;10.82;3.10;;;;;;;11.30;100.00;99510.00;4830720;29;20038;-75
2022/11/03 05:44:26;;;;;;;17.00;3.20;;;;;;;11.33;100.00;99508.53;4799548;29;20506;-75
2022/11/03 05:46:51;;;;;;;19.33;3.53;;;;;;;11.33;100.00;99508.53;4815537;29;20132;-75
2022/11/03 05:49:17;;;;;;;16.10;3.72;;;;;;;11.32;100.00;99499.38;4800100;29;20054;-75
2022/11/03 05:51:42;;;;;;;13.45;3.55;;;;;;;11.33;100.00;99498.22;4800695;29;20034;-75
2022/11/03 05:54:30;;;;;;;16.30;3.80;;;;;;;11.34;100.00;99483.22;4800387;29;20041;-76
2022/11/03 05:56:55;;;;;;;14.77;3.88;;;;;;;11.35;100.00;99484.03;4815346;29;20476;-75
2022/11/03 05:59:23;;;;;;;14.00;3.42;;;;;;;11.34;100.00;99485.16;4815522;29;20030;-76
2022/11/03 06:01:48;;;;;;;15.38;3.53;;;;;;;11.36;100.00;99480.91;4815462;29;20108;-76
2022/11/03 06:04:24;;;;;;;15.25;3.40;;;;;;;11.40;100.00;99464.41;4815280;29;20041;-76
2022/11/03 06:06:53;;;;;;;13.73;3.45;;;;;;;11.39;100.00;99460.81;4815240;29;20090;-75
2022/11/03 06:09:20;;;;;;;15.63;3.38;;;;;;;11.40;100.00;99450.50;4800161;29;20030;-76
2022/11/03 06:11:45;;;;;;;13.73;3.53;;;;;;;11.41;100.00;99441.81;4799967;29;20038;-76
2022/11/03 06:14:19;;;;;;;14.43;3.67;;;;;;;11.44;100.00;99431.22;4815164;29;20050;-75
2022/11/03 06:16:54;;;;;;;16.52;4.47;;;;;;;11.45;100.00;99421.72;4797293;29;20042;-76
2022/11/03 06:19:26;;;;;;;15.60;3.78;;;;;;;11.46;100.00;99410.28;4814896;29;20182;-76
2022/11/03 06:21:52;;;;;;;18.17;4.15;;;;;;;11.47;100.00;99398.00;4832278;29;20551;-76
2022/11/03 06:24:20;;;;;;;18.73;4.43;;;;;;;11.50;100.00;99394.56;4803383;29;20037;-76
2022/11/03 06:26:46;;;;;;;17.52;4.57;;;;;;;11.50;100.00;99402.91;4818685;29;20034;-76
2022/11/03 06:29:15;;;;;;;19.65;4.55;;;;;;;11.53;100.00;99398.66;4819010;29;20097;-76
2022/11/03 06:31:41;;;;;;;17.65;4.30;;;;;;;11.52;100.00;99395.06;4800158;29;20061;-76
2022/11/03 06:34:35;;;;;;;18.60;4.70;;;;;;;11.55;100.00;99393.59;4798977;29;20050;-75
2022/11/03 06:37:09;;;;;;;18.80;4.93;;;;;;;11.54;100.00;99395.56;4800924;29;20042;-75
2022/11/03 06:39:35;;;;;;;18.10;4.57;;;;;;;11.57;100.00;99382.97;4803708;29;20053;-76
2022/11/03 06:42:10;;;;;;;17.48;4.28;;;;;;;11.56;100.00;99381.31;4827796;29;20033;-76
2022/11/03 06:44:35;;;;;;;25.65;5.50;;;;;;;11.57;100.00;99364.31;4829501;29;20066;-76
2022/11/03 06:47:04;;;;;;;16.77;4.80;;;;;;;11.57;100.00;99382.97;4796498;29;20046;-76
2022/11/03 06:49:34;;;;;;;18.50;4.78;;;;;;;11.60;100.00;99374.78;4793877;29;20053;-76
2022/11/03 06:52:36;;;;;;;19.25;4.50;;;;;;;11.59;100.00;99361.22;4829535;29;20030;-76
2022/11/03 06:55:10;;;;;;;15.97;4.50;;;;;;;11.58;100.00;99352.03;4743290;30;20035;-73
2022/11/03 06:57:39;;;;;;;25.20;5.45;;;;;;;11.63;100.00;99362.19;4788913;30;20290;-76
2022/11/03 07:00:34;;;;;;;14.85;4.18;;;;;;;11.64;100.00;99361.03;4759275;30;20457;-76
2022/11/03 07:03:25;;;;;;;19.83;4.35;;;;;;;11.65;100.00;99347.97;4749034;30;20039;-76
2022/11/03 07:05:54;;;;;;;22.52;5.05;;;;;;;11.66;100.00;99344.84;4741540;30;20040;-75
2022/11/03 07:08:27;;;;;;;16.45;3.92;;;;;;;11.64;100.00;99358.25;4772472;30;20058;-75
2022/11/03 07:11:13;;;;;;;21.95;5.45;;;;;;;11.68;100.00;99353.66;4764013;30;20039;-76
2022/11/03 07:13:38;;;;;;;22.55;4.05;;;;;;;11.68;100.00;99338.97;4759085;30;20512;-76
2022/11/03 07:16:13;;;;;;;18.60;4.72;;;;;;;11.70;100.00;99334.69;4772578;30;20043;-76
2022/11/03 07:18:41;;;;;;;14.60;4.10;;;;;;;11.67;100.00;99340.91;4752864;30;20497;-75
2022/11/03 07:21:24;;;;;;;15.27;4.28;;;;;;;11.69;100.00;99321.09;4759327;30;20035;-75
2022/11/03 07:23:49;;;;;;;17.85;4.95;;;;;;;11.71;100.00;99333.53;4763235;30;20043;-75
2022/11/03 07:26:15;;;;;;;19.13;4.55;;;;;;;11.72;100.00;99326.81;4770481;30;20042;-75
2022/11/03 07:28:40;;;;;;;20.02;4.43;;;;;;;11.73;100.00;99319.28;4786606;29;20102;-76
2022/11/03 07:31:15;;;;;;;17.15;4.70;;;;;;;11.73;100.00;99317.34;4795876;29;20506;-76
2022/11/03 07:33:41;;;;;;;16.13;4.20;;;;;;;11.74;100.00;99313.41;4829165;29;20042;-75
2022/11/03 07:36:07;;;;;;;17.30;4.50;;;;;;;11.75;100.00;99312.25;4798831;29;20087;-76
2022/11/03 07:38:33;;;;;;;15.10;4.03;;;;;;;11.74;100.00;99302.28;4795352;29;20038;-75
2022/11/03 07:40:58;;;;;;;18.25;4.30;;;;;;;11.76;100.00;99297.22;4813567;29;20049;-75
2022/11/03 07:43:28;;;;;;;14.95;3.88;;;;;;;11.76;100.00;99293.63;4826330;29;20073;-75
2022/11/03 07:45:54;;;;;;;12.93;3.72;;;;;;;11.77;100.00;99290.50;4813142;29;20038;-75
2022/11/03 07:48:21;;;;;;;13.48;3.10;;;;;;;11.77;100.00;99296.06;4798271;29;20046;-75
2022/11/03 07:50:47;;;;;;;15.88;3.95;;;;;;;11.79;100.00;99288.19;4813278;29;20526;-76
2022/11/03 07:53:19;;;;;;;14.30;3.47;;;;;;;11.80;100.00;99298.16;4828702;29;20069;-75
2022/11/03 07:55:45;;;;;;;14.38;3.47;;;;;;;11.81;100.00;99294.25;4799185;29;20487;-75
2022/11/03 07:58:21;;;;;;;14.95;3.85;;;;;;;11.81;100.00;99310.09;4828565;29;20052;-75
2022/11/03 08:00:47;;;;;;;14.43;3.78;;;;;;;11.83;100.00;99310.59;4809942;29;20030;-75
2022/11/03 08:03:40;;;;;;;14.80;3.63;;;;;;;11.85;100.00;99319.44;4813145;29;20036;-75
2022/11/03 08:06:06;;;;;;;15.98;3.90;;;;;;;11.87;100.00;99310.78;4828611;29;20084;-75
2022/11/03 08:08:31;;;;;;;18.58;3.85;;;;;;;11.89;100.00;99314.06;4782650;29;20031;-75
2022/11/03 08:10:56;;;;;;;10.18;3.92;;;;;;;11.88;100.00;99320.78;4828328;29;20048;-76
2022/11/03 08:13:22;;;;;;;10.90;3.63;;;;;;;11.88;100.00;99329.13;4844726;29;20034;-75
2022/11/03 08:15:47;;;;;;;20.15;4.43;;;;;;;11.87;100.00;99321.91;4810288;29;20038;-76
2022/11/03 08:18:13;;;;;;;14.77;3.75;;;;;;;11.90;100.00;99337.97;4820321;29;20497;-75
2022/11/03 08:20:38;;;;;;;12.57;3.88;;;;;;;11.87;100.00;99338.59;4805704;29;20479;-76
2022/11/03 08:23:04;;;;;;;16.33;3.80;;;;;;;11.88;100.00;99340.25;4816705;29;20137;-75
2022/11/03 08:25:30;;;;;;;16.55;4.05;;;;;;;11.90;100.00;99343.53;4816969;29;20042;-75
2022/11/03 08:27:55;;;;;;;13.23;3.95;;;;;;;11.91;100.00;99339.59;4813817;29;20075;-75
2022/11/03 08:30:21;;;;;;;13.18;3.35;;;;;;;11.90;100.00;99357.44;4800970;29;20045;-76
2022/11/03 08:32:46;;;;;;;16.88;4.28;;;;;;;11.91;100.00;99353.50;4793957;29;20031;-75
2022/11/03 08:35:12;;;;;;;13.10;3.40;;;;;;;11.89;100.00;99372.47;4803501;29;20035;-75
2022/11/03 08:37:37;;;;;;;11.88;3.40;;;;;;;11.90;100.00;99411.09;4825121;29;20638;-75
2022/11/03 08:40:03;;;;;;;15.50;3.80;;;;;;;11.90;100.00;99438.13;4828032;29;20041;-76
2022/11/03 08:42:28;;;;;;;16.08;3.72;;;;;;;11.86;100.00;99390.63;4796933;29;20117;-75
2022/11/03 08:44:54;;;;;;;15.00;3.40;;;;;;;11.87;100.00;99402.56;4809203;29;20057;-75
2022/11/03 08:47:20;;;;;;;11.07;2.95;;;;;;;11.86;100.00;99398.97;4813042;29;20034;-76
2022/11/03 08:49:45;;;;;;;8.30;2.72;;;;;;;11.85;100.00;99402.91;4841641;29;20079;-76
2022/11/03 08:52:11;;;;;;;8.25;2.38;;;;;;;11.83;100.00;99406.00;4841681;29;20038;-75
2022/11/03 08:54:37;;;;;;;8.90;2.20;;;;;;;11.79;100.00;99382.78;4814744;29;20492;-75
2022/11/03 08:57:03;;;;;;;8.02;2.33;;;;;;;11.77;100.00;99371.16;4831409;29;20026;-75
2022/11/03 08:59:28;;;;;;;4.18;1.40;;;;;;;11.76;100.00;99365.94;4816758;29;20042;-75
2022/11/03 09:01:54;;;;;;;7.20;1.98;;;;;;;11.72;100.00;99364.94;4816293;29;20038;-75
2022/11/03 09:04:20;;;;;;;8.20;2.47;;;;;;;11.70;100.00;99362.50;4801258;29;20503;-75
2022/11/03 09:06:45;;;;;;;6.70;1.70;;;;;;;11.66;100.00;99372.66;4816356;29;20103;-75
2022/11/03 09:09:11;;;;;;;4.82;1.15;;;;;;;11.65;100.00;99371.03;4812092;29;20034;-76
2022/11/03 09:11:36;;;;;;;3.85;1.40;;;;;;;11.61;100.00;99359.72;4814147;29;20030;-75
2022/11/03 09:14:02;;;;;;;3.85;1.60;;;;;;;11.61;100.00;99356.94;4831596;29;20034;-75
2022/11/03 09:16:28;;;;;;;4.57;1.20;;;;;;;11.59;100.00;99350.91;4831106;29;20502;-75
2022/11/03 09:18:54;;;;;;;4.00;1.10;;;;;;;11.59;100.00;99344.53;4816126;29;20104;-75
2022/11/03 09:21:19;;;;;;;4.05;1.10;;;;;;;11.59;100.00;99347.31;4816224;29;20114;-75
2022/11/03 09:23:45;;;;;;;2.88;1.00;;;;;;;11.56;100.00;99346.00;4801115;29;20498;-75
2022/11/03 09:26:10;;;;;;;2.17;0.85;;;;;;;11.56;100.00;99359.91;4816016;29;20034;-75
2022/11/03 09:28:36;;;;;;;3.78;0.93;;;;;;;11.54;100.00;99353.84;4805309;29;20063;-76
2022/11/03 09:31:01;;;;;;;2.08;0.80;;;;;;;11.52;100.00;99345.00;4786009;29;20701;-76
2022/11/03 09:33:27;;;;;;;2.40;0.93;;;;;;;11.52;100.00;99324.75;4786043;29;20030;-75
2022/11/03 09:35:52;;;;;;;3.00;0.80;;;;;;;11.51;100.00;99342.56;4821437;29;20054;-76
2022/11/03 09:38:18;;;;;;;3.47;0.88;;;;;;;11.48;100.00;99343.22;4814172;29;20476;-75
2022/11/03 09:40:43;;;;;;;2.60;0.70;;;;;;;11.47;100.00;99297.09;4830678;29;20041;-75
2022/11/03 09:43:09;;;;;;;2.58;0.80;;;;;;;11.43;100.00;99310.03;4798677;29;20566;-75
2022/11/03 09:45:35;;;;;;;3.08;0.77;;;;;;;11.33;100.00;99341.75;4815496;29;20044;-75
2022/11/03 09:48:00;;;;;;;1.95;0.77;;;;;;;11.32;100.00;99357.63;4782168;29;20050;-76
2022/11/03 09:50:26;;;;;;;2.80;0.70;;;;;;;11.31;100.00;99350.44;4782349;29;20038;-76
2022/11/03 09:52:53;;;;;;;4.28;1.08;;;;;;;11.29;100.00;99344.38;4797401;29;20091;-76
2022/11/03 09:55:22;;;;;;;3.47;0.70;;;;;;;11.27;100.00;99337.50;4782834;29;20123;-76
2022/11/03 09:57:48;;;;;;;4.47;0.90;;;;;;;11.25;100.00;99342.56;4787450;29;20026;-75
2022/11/03 10:00:20;;;;;;;7.18;0.98;;;;;;;11.24;100.00;99343.72;4780487;29;20030;-76
2022/11/03 10:02:46;;;;;;;;;;;;;;;11.22;100.00;99349.59;4827522;29;20487;-76
2022/11/03 10:05:23;;;;;;;2.08;0.82;;;;;;;11.20;100.00;99326.91;4781195;29;19912;-75
2022/11/03 10:07:48;;;;;;;2.63;1.40;;;;;;;11.17;100.00;99333.94;4797110;29;20039;-75
2022/11/03 10:10:18;;;;;;;1.50;0.90;;;;;;;11.18;100.00;99362.53;4812145;29;20039;-75
2022/11/03 10:12:44;;;;;;;2.20;0.80;;;;;;;11.16;100.00;99365.63;4781661;29;20040;-75
2022/11/03 10:15:19;;;;;;;2.78;0.90;;;;;;;11.17;100.00;99336.69;4794688;29;20023;-75
2022/11/03 10:17:45;;;;;;;3.10;1.08;;;;;;;11.17;100.00;99346.97;4783381;29;20058;-75
2022/11/03 10:20:11;;;;;;;2.00;0.80;;;;;;;11.17;100.00;99333.94;4798696;29;20196;-75
2022/11/03 10:22:37;;;;;;;2.88;1.00;;;;;;;11.18;100.00;99321.66;4797942;29;20094;-75
2022/11/03 10:25:24;;;;;;;2.08;1.00;;;;;;;11.19;100.00;99317.72;4798103;29;20400;-75
2022/11/03 10:27:50;;;;;;;2.35;1.10;;;;;;;11.20;100.00;99301.88;4828148;29;20030;-75
2022/11/03 10:30:15;;;;;;;4.32;1.17;;;;;;;11.21;100.00;99303.50;4781821;29;20103;-75
2022/11/03 10:32:41;;;;;;;2.30;1.20;;;;;;;11.22;100.00;99299.56;4780040;29;20402;-75
2022/11/03 10:35:31;;;;;;;1.90;1.30;;;;;;;11.24;100.00;99310.38;4795494;29;20516;-75
2022/11/03 10:38:04;;;;;;;2.95;1.08;;;;;;;11.26;100.00;99320.03;4777570;29;20058;-75
2022/11/03 10:40:32;;;;;;;;;;;;;;;11.28;100.00;99323.31;4782863;29;20030;-75
2022/11/03 10:42:58;;;;;;;3.13;1.60;;;;;;;11.32;100.00;99354.84;4796639;29;19913;-75
2022/11/03 10:45:24;;;;;;;4.65;1.50;;;;;;;11.36;100.00;99360.56;4782564;29;20046;-75
2022/11/03 10:47:59;;;;;;;4.55;1.30;;;;;;;11.38;100.00;99361.88;4799252;29;20057;-75
2022/11/03 10:50:26;;;;;;;3.63;1.20;;;;;;;11.41;100.00;99366.75;4811499;29;20040;-75
2022/11/03 10:52:52;;;;;;;2.80;1.30;;;;;;;11.45;100.00;99374.44;4814175;29;20040;-75
2022/11/03 10:55:18;;;;;;;3.22;1.38;;;;;;;11.48;100.00;99388.53;4799605;29;20379;-75
2022/11/03 10:57:43;;;;;;;4.05;1.33;;;;;;;11.51;100.00;99389.84;4796217;29;20567;-75
2022/11/03 11:00:14;;;;;;;4.10;1.02;;;;;;;11.53;100.00;99384.75;4829558;29;20038;-75
2022/11/03 11:02:41;;;;;;;2.97;1.05;;;;;;;11.53;100.00;99377.25;4829617;29;20046;-75
2022/11/03 11:05:20;;;;;;;1.88;1.00;;;;;;;11.55;100.00;99363.00;4814290;29;20034;-75
2022/11/03 11:07:45;;;;;;;2.95;1.33;;;;;;;11.55;100.00;99365.78;4799058;29;20432;-74
2022/11/03 11:10:11;;;;;;;3.13;1.10;;;;;;;11.55;100.00;99374.13;4782579;29;20128;-74
2022/11/03 11:12:37;;;;;;;3.30;1.50;;;;;;;11.57;100.00;99377.41;4832742;29;20038;-75
2022/11/03 11:15:06;;;;;;;2.83;1.30;;;;;;;11.58;100.00;99367.91;4799026;29;20503;-74
2022/11/03 11:17:39;;;;;;;3.75;1.25;;;;;;;11.60;100.00;99355.31;4814354;29;20555;-75
2022/11/03 11:20:21;;;;;;;3.78;1.38;;;;;;;11.62;100.00;99344.69;4814192;29;20030;-75
2022/11/03 11:22:47;;;;;;;3.17;1.30;;;;;;;11.66;100.00;99350.41;4828814;29;20038;-76
2022/11/03 11:25:13;;;;;;;2.08;1.35;;;;;;;11.70;100.00;99362.50;4813721;29;20312;-75
2022/11/03 11:27:38;;;;;;;2.13;1.10;;;;;;;11.74;100.00;99362.66;4838137;29;20034;-75
2022/11/03 11:30:06;;;;;;;5.05;1.30;;;;;;;11.80;100.00;99353.81;4813307;29;20037;-75
2022/11/03 11:33:14;;;;;;;3.80;1.50;;;;;;;11.85;100.00;99348.09;4798932;29;20483;-75
2022/11/03 11:35:40;;;;;;;4.10;1.08;;;;;;;11.92;100.00;99355.13;4820485;29;20053;-75
2022/11/03 11:38:43;;;;;;;3.47;1.50;;;;;;;11.99;100.00;99338.75;4841846;29;20398;-75
2022/11/03 11:41:08;;;;;;;4.95;1.52;;;;;;;12.07;100.00;99346.25;4816983;29;20026;-75
2022/11/03 11:43:34;;;;;;;2.63;1.65;;;;;;;12.12;100.00;99343.28;4798942;29;20361;-75